createdAt,value
2023-07-04T00:02:08.583Z,8.90
2023-07-04T00:07:11.524Z,8.80
2023-07-04T00:12:14.408Z,8.40
2023-07-04T00:17:17.429Z,8.30
2023-07-04T00:27:24.721Z,9.10
2023-07-04T00:32:27.853Z,8.70
2023-07-04T00:37:31.001Z,8.80
2023-07-04T00:42:37.245Z,7.20
2023-07-04T00:47:48.089Z,8.10
2023-07-04T00:52:54.453Z,7.60
2023-07-04T00:57:57.527Z,8.00
2023-07-04T01:03:06.635Z,6.80
2023-07-04T01:08:16.924Z,7.10
2023-07-04T01:13:37.973Z,7.40
2023-07-04T01:18:45.592Z,7.90
2023-07-04T01:24:16.445Z,8.30
2023-07-04T01:29:20.170Z,9.40
2023-07-04T01:34:23.121Z,8.40
2023-07-04T01:39:27.002Z,8.90
2023-07-04T01:44:29.838Z,8.00
2023-07-04T01:49:33.585Z,8.20
2023-07-04T01:54:36.948Z,9.00
2023-07-04T01:59:39.829Z,8.50
2023-07-04T02:04:42.928Z,8.00
2023-07-04T02:14:48.584Z,9.00
2023-07-04T02:19:51.532Z,8.80
2023-07-04T02:24:54.379Z,8.50
2023-07-04T02:29:57.288Z,8.70
2023-07-04T02:35:00.305Z,7.60
2023-07-04T02:40:03.602Z,8.70
2023-07-04T02:45:08.122Z,9.10
2023-07-04T02:50:11.529Z,10.00
2023-07-04T02:55:14.436Z,9.40
2023-07-04T03:00:17.417Z,13.40
2023-07-04T03:05:20.512Z,10.10
2023-07-04T03:15:26.463Z,10.80
2023-07-04T03:20:29.362Z,9.90
2023-07-04T03:25:32.300Z,9.90
2023-07-04T03:30:35.181Z,8.90
2023-07-04T03:35:53.204Z,9.20
2023-07-04T03:46:06.214Z,8.90
2023-07-04T03:51:09.125Z,7.10
2023-07-04T03:56:12.499Z,7.90
2023-07-04T04:01:15.482Z,7.30
2023-07-04T04:11:21.133Z,8.10
2023-07-04T04:16:24.074Z,7.80
2023-07-04T04:21:26.954Z,8.00
2023-07-04T04:26:39.306Z,7.90
2023-07-04T04:31:42.609Z,6.80
2023-07-04T04:36:47.148Z,8.20
2023-07-04T04:41:54.018Z,8.10
2023-07-04T04:46:56.947Z,8.30
2023-07-04T04:51:59.895Z,7.60
2023-07-04T04:57:03.828Z,8.10
2023-07-04T05:02:06.914Z,8.00
2023-07-04T05:07:09.772Z,7.50
2023-07-04T05:12:12.650Z,7.20
2023-07-04T05:17:16.569Z,6.50
2023-07-04T05:22:20.898Z,7.60
2023-07-04T05:27:23.906Z,6.90
2023-07-04T05:32:26.832Z,6.80
2023-07-04T05:37:31.200Z,6.40
2023-07-04T05:42:34.032Z,7.00
2023-07-04T05:47:36.922Z,6.50
2023-07-04T05:52:39.852Z,5.80
2023-07-04T05:57:42.741Z,6.50
2023-07-04T06:02:50.080Z,6.60
2023-07-04T06:07:53.095Z,5.80
2023-07-04T06:12:55.985Z,6.10
2023-07-04T06:17:58.977Z,5.90
2023-07-04T06:23:02.112Z,5.90
2023-07-04T06:28:05.126Z,6.00
2023-07-04T06:33:08.072Z,5.30
2023-07-04T06:38:11.498Z,5.30
2023-07-04T06:43:14.357Z,4.90
2023-07-04T06:48:17.283Z,6.10
2023-07-04T06:53:20.446Z,5.60
2023-07-04T06:58:23.467Z,5.30
2023-07-04T07:03:26.535Z,4.80
2023-07-04T07:08:30.374Z,5.20
2023-07-04T07:13:36.020Z,4.00
2023-07-04T07:18:42.286Z,4.90
2023-07-04T07:23:45.890Z,4.40
2023-07-04T07:28:49.010Z,4.40
2023-07-04T07:33:53.963Z,4.40
2023-07-04T07:38:57.017Z,4.70
2023-07-04T07:44:00.038Z,5.40
2023-07-04T07:49:03.077Z,4.80
2023-07-04T07:54:08.153Z,4.90
2023-07-04T07:59:11.985Z,4.80
2023-07-04T08:04:16.206Z,5.30
2023-07-04T08:09:20.728Z,4.90
2023-07-04T08:14:25.577Z,5.40
2023-07-04T08:19:29.345Z,5.50
2023-07-04T08:24:34.985Z,6.00
2023-07-04T08:29:41.750Z,5.60
2023-07-04T08:34:47.394Z,5.70
2023-07-04T08:39:51.393Z,6.20
2023-07-04T08:44:57.352Z,6.40
2023-07-04T08:50:07.849Z,6.30
2023-07-04T08:55:16.394Z,5.50
2023-07-04T09:00:29.506Z,6.30
2023-07-04T09:05:54.172Z,6.90
2023-07-04T09:11:02.977Z,7.40
2023-07-04T09:16:41.401Z,7.60
2023-07-04T09:21:45.774Z,7.60
2023-07-04T09:26:54.705Z,7.20
2023-07-04T09:32:02.178Z,7.10
2023-07-04T09:37:15.366Z,7.30
2023-07-04T09:42:30.046Z,7.60
2023-07-04T09:47:46.052Z,7.10
2023-07-04T09:53:12.260Z,7.40
2023-07-04T09:58:16.437Z,8.10
2023-07-04T10:03:19.503Z,8.00
2023-07-04T10:08:22.652Z,7.80
2023-07-04T10:13:34.972Z,7.90
2023-07-04T10:18:40.083Z,7.40
2023-07-04T10:23:42.982Z,8.10
2023-07-04T10:28:47.536Z,8.20
2023-07-04T10:34:07.213Z,8.80
2023-07-04T10:39:14.142Z,11.00
2023-07-04T10:44:26.068Z,8.90
2023-07-04T10:49:34.216Z,8.70
2023-07-04T10:54:37.165Z,9.40
2023-07-04T10:59:46.092Z,8.40
2023-07-04T11:04:49.926Z,8.90
2023-07-04T11:09:56.600Z,9.90
2023-07-04T11:15:27.052Z,9.60
2023-07-04T11:20:50.435Z,9.10
2023-07-04T11:26:00.155Z,9.00
2023-07-04T11:31:25.915Z,10.00
2023-07-04T11:36:52.653Z,9.30
2023-07-04T11:41:56.675Z,8.90
2023-07-04T11:47:06.018Z,8.90
2023-07-04T11:52:27.684Z,8.60
2023-07-04T11:58:01.098Z,9.50
2023-07-04T12:03:24.608Z,9.80
2023-07-04T12:08:37.048Z,9.20
2023-07-04T12:13:43.792Z,9.30
2023-07-04T12:18:47.063Z,10.40
2023-07-04T12:23:53.752Z,11.10
2023-07-04T12:39:22.916Z,10.20
2023-07-04T12:44:40.355Z,8.10
2023-07-04T12:49:45.284Z,8.80
2023-07-04T12:54:49.991Z,9.00
2023-07-04T12:59:52.995Z,9.00
2023-07-04T13:04:58.592Z,10.30
2023-07-04T13:10:02.454Z,9.60
2023-07-04T13:15:24.414Z,9.50
2023-07-04T13:20:29.079Z,8.80
2023-07-04T13:25:42.613Z,8.50
2023-07-04T13:35:52.558Z,8.80
2023-07-04T13:40:55.643Z,7.80
2023-07-04T13:45:58.724Z,9.70
2023-07-04T13:51:02.033Z,9.60
2023-07-04T13:56:05.462Z,7.20
2023-07-04T14:06:15.814Z,7.50
2023-07-04T14:11:21.232Z,7.50
2023-07-04T14:21:31.065Z,6.70
2023-07-04T14:26:34.131Z,7.20
2023-07-04T14:31:37.234Z,7.80
2023-07-04T14:36:40.171Z,7.40
2023-07-04T14:46:49.162Z,6.10
2023-07-04T14:51:52.169Z,7.10
2023-07-04T14:56:56.765Z,5.80
2023-07-04T15:02:00.594Z,6.50
2023-07-04T15:07:03.840Z,6.60
2023-07-04T15:12:07.010Z,6.10
2023-07-04T15:17:10.313Z,7.30
2023-07-04T15:22:13.265Z,6.10
2023-07-04T15:27:16.141Z,6.80
2023-07-04T15:32:19.008Z,6.00
2023-07-04T15:37:24.353Z,6.60
2023-07-04T15:42:27.623Z,6.50
2023-07-04T15:47:30.524Z,6.10
2023-07-04T15:52:33.422Z,5.70
2023-07-04T15:57:38.383Z,6.30
2023-07-04T16:02:41.733Z,5.80
2023-07-04T16:07:45.271Z,6.20
2023-07-04T16:12:48.713Z,6.00
2023-07-04T16:17:53.371Z,5.30
2023-07-04T16:23:00.012Z,5.30
2023-07-04T16:28:03.228Z,5.30
2023-07-04T16:33:06.200Z,5.10
2023-07-04T16:38:10.619Z,6.40
2023-07-04T16:43:13.569Z,6.00
2023-07-04T16:48:16.803Z,6.50
2023-07-04T16:53:19.865Z,4.80
2023-07-04T16:58:22.852Z,17.90
2023-07-04T17:03:28.275Z,8.00
2023-07-04T17:08:34.164Z,5.90
2023-07-04T17:13:39.964Z,5.60
2023-07-04T17:18:43.550Z,5.70
2023-07-04T17:23:46.453Z,5.60
2023-07-04T17:28:49.369Z,8.50
2023-07-04T17:33:52.226Z,7.50
2023-07-04T17:38:55.048Z,7.20
2023-07-04T17:44:00.006Z,6.30
2023-07-04T17:49:03.384Z,5.40
2023-07-04T17:54:06.248Z,6.80
2023-07-04T17:59:10.916Z,7.60
2023-07-04T18:04:14.049Z,6.00
2023-07-04T18:09:17.762Z,5.20
2023-07-04T18:14:20.612Z,5.30
2023-07-04T18:19:23.676Z,5.50
2023-07-04T18:24:26.610Z,5.50
2023-07-04T18:29:29.624Z,5.60
2023-07-04T18:34:32.789Z,5.90
2023-07-04T18:39:36.915Z,5.90
2023-07-04T18:44:39.939Z,5.90
2023-07-04T18:49:44.558Z,7.10
2023-07-04T18:54:48.015Z,7.20
2023-07-04T18:59:54.269Z,8.50
2023-07-04T19:04:57.590Z,8.80
2023-07-04T19:10:00.661Z,8.50
2023-07-04T19:15:04.583Z,8.10
2023-07-04T19:20:11.110Z,8.50
2023-07-04T19:25:14.357Z,8.10
2023-07-04T19:30:17.282Z,7.80
2023-07-04T19:35:21.172Z,6.80
2023-07-04T19:40:24.193Z,7.00
2023-07-04T19:45:27.650Z,7.30
2023-07-04T19:50:31.840Z,8.90
2023-07-04T19:55:36.327Z,11.40
2023-07-04T20:00:46.467Z,14.10
2023-07-04T20:05:49.676Z,18.80
2023-07-04T20:10:52.631Z,21.70
2023-07-04T20:15:57.199Z,19.20
2023-07-04T20:21:00.345Z,18.40
2023-07-04T20:26:04.562Z,15.10
2023-07-04T20:31:07.518Z,14.50
2023-07-04T20:36:10.872Z,13.10
2023-07-04T20:41:14.141Z,10.20
2023-07-04T20:46:19.706Z,8.40
2023-07-04T20:51:24.456Z,9.40
2023-07-04T20:56:27.748Z,9.40
2023-07-04T21:01:31.101Z,8.90
2023-07-04T21:06:34.262Z,10.20
2023-07-04T21:11:37.823Z,7.50
2023-07-04T21:16:43.374Z,5.90
2023-07-04T21:21:46.357Z,6.50
2023-07-04T21:26:49.974Z,6.50
2023-07-04T21:31:53.125Z,5.60
2023-07-04T21:36:56.109Z,6.00
2023-07-04T21:41:59.041Z,5.90
2023-07-04T21:47:02.033Z,5.10
2023-07-04T21:52:06.290Z,5.00
2023-07-04T21:57:09.215Z,4.70
2023-07-04T22:07:15.698Z,5.10
2023-07-04T22:17:21.254Z,5.00
2023-07-04T22:27:26.919Z,5.00
2023-07-04T22:32:29.845Z,4.60
2023-07-04T22:42:35.574Z,5.20
2023-07-04T22:52:42.146Z,4.80
2023-07-04T22:57:45.001Z,5.20
2023-07-04T23:02:49.276Z,4.70
2023-07-04T23:07:52.219Z,5.20
2023-07-04T23:12:56.857Z,5.20
2023-07-04T23:18:00.400Z,5.80
2023-07-04T23:23:03.790Z,5.60
2023-07-04T23:28:06.732Z,5.10
2023-07-04T23:38:12.648Z,5.30
2023-07-04T23:43:15.529Z,5.80
2023-07-04T23:48:18.448Z,6.10
2023-07-04T23:53:21.683Z,5.80
2023-07-04T23:58:24.681Z,6.10
